Time;durP1;ratioP1;P1;durP2;ratioP2;P2;SDS_P1;SDS_P2;PMS_P1;PMS_P2;Temp;Humidity;BMP_temperature;BMP_pressure;BME280_temperature;BME280_humidity;BME280_pressure;Samples;Min_cycle;Max_cycle;Signal;HPM_P1;HPM_P2
2022/10/26 00:02:20;;;;;;;0.15;0.15;;;13.00;99.90;;;;;;5014463;28;20217;-75
2022/10/26 00:04:46;;;;;;;0.20;0.20;;;13.00;99.90;;;;;;4996672;28;20022;-75
2022/10/26 00:07:11;;;;;;;0.20;0.20;;;13.00;99.90;;;;;;5013166;28;20025;-75
2022/10/26 00:09:37;;;;;;;0.13;0.13;;;13.00;99.90;;;;;;5014441;28;20413;-75
2022/10/26 00:12:03;;;;;;;0.75;0.75;;;13.20;99.90;;;;;;5014281;28;20030;-74
2022/10/26 00:14:29;;;;;;;0.20;0.20;;;13.20;99.90;;;;;;5012788;28;20026;-74
2022/10/26 00:16:55;;;;;;;0.10;0.10;;;13.30;99.90;;;;;;4995728;28;20389;-75
2022/10/26 00:19:21;;;;;;;1.85;0.60;;;13.50;99.90;;;;;;4996488;28;20120;-75
2022/10/26 00:21:47;;;;;;;0.10;0.10;;;13.80;99.90;;;;;;5014323;28;20022;-75
2022/10/26 00:24:13;;;;;;;0.10;0.10;;;13.80;99.90;;;;;;5012838;28;20406;-75
2022/10/26 00:26:39;;;;;;;0.20;0.20;;;13.70;99.90;;;;;;5012734;28;20478;-75
2022/10/26 00:29:05;;;;;;;0.20;0.20;;;13.70;99.90;;;;;;5013905;28;20033;-75
2022/10/26 00:31:31;;;;;;;0.20;0.20;;;13.50;99.90;;;;;;4996294;28;20061;-75
2022/10/26 00:33:57;;;;;;;0.10;0.10;;;13.40;99.90;;;;;;5013883;28;20060;-75
2022/10/26 00:36:24;;;;;;;0.10;0.10;;;13.30;99.90;;;;;;5013656;28;20478;-75
2022/10/26 00:38:52;;;;;;;0.10;0.10;;;13.40;99.90;;;;;;5013810;28;20034;-75
2022/10/26 00:41:24;;;;;;;0.10;0.10;;;13.40;99.90;;;;;;4996001;28;20164;-75
2022/10/26 00:43:51;;;;;;;0.15;0.15;;;13.50;99.90;;;;;;4996085;28;20030;-75
2022/10/26 00:46:37;;;;;;;0.10;0.10;;;13.60;99.90;;;;;;5013499;28;20090;-75
2022/10/26 00:49:29;;;;;;;0.10;0.10;;;13.50;99.90;;;;;;5013473;28;20096;-75
2022/10/26 00:51:55;;;;;;;0.20;0.20;;;13.40;99.90;;;;;;4992458;28;20491;-75
2022/10/26 00:54:21;;;;;;;0.10;0.10;;;13.30;99.90;;;;;;5013474;28;20036;-75
2022/10/26 00:56:50;;;;;;;0.10;0.10;;;13.00;99.90;;;;;;5013384;28;20045;-75
2022/10/26 00:59:17;;;;;;;0.10;0.10;;;13.10;99.90;;;;;;5013414;28;20486;-75
2022/10/26 01:01:46;;;;;;;0.17;0.17;;;13.30;99.90;;;;;;5013234;28;20397;-75
2022/10/26 01:04:13;;;;;;;0.10;0.10;;;13.40;99.90;;;;;;4995653;28;20026;-75
2022/10/26 01:06:41;;;;;;;0.13;0.13;;;13.30;99.90;;;;;;5013108;28;20018;-75
2022/10/26 01:09:07;;;;;;;0.10;0.10;;;13.30;99.90;;;;;;5011946;28;20025;-75
2022/10/26 01:11:32;;;;;;;0.10;0.10;;;13.40;99.90;;;;;;5013153;28;20461;-74
2022/10/26 01:14:00;;;;;;;0.10;0.10;;;13.40;99.90;;;;;;4995542;28;20029;-74
2022/10/26 01:16:52;;;;;;;0.10;0.10;;;13.60;99.90;;;;;;5012922;28;20449;-74
2022/10/26 01:19:36;;;;;;;0.10;0.10;;;13.90;99.90;;;;;;4975891;28;20038;-75
2022/10/26 01:22:11;;;;;;;0.10;0.10;;;13.90;99.90;;;;;;4995489;28;20037;-75
2022/10/26 01:24:51;;;;;;;0.10;0.10;;;14.00;99.90;;;;;;5012900;28;20032;-74
2022/10/26 01:27:34;;;;;;;0.10;0.10;;;14.10;99.90;;;;;;5011424;28;20076;-74
2022/10/26 01:30:12;;;;;;;0.20;0.20;;;14.10;99.90;;;;;;5012675;28;20025;-75
2022/10/26 01:32:43;;;;;;;0.15;0.15;;;14.00;99.90;;;;;;4995243;28;20030;-75
2022/10/26 01:35:15;;;;;;;0.10;0.10;;;14.10;99.90;;;;;;5012527;28;20032;-75
2022/10/26 01:37:55;;;;;;;0.10;0.10;;;14.20;99.90;;;;;;4995216;28;20556;-74
2022/10/26 01:40:32;;;;;;;0.10;0.10;;;14.30;99.90;;;;;;5011623;28;20220;-75
2022/10/26 01:43:03;;;;;;;0.10;0.10;;;14.40;99.90;;;;;;5011369;28;20022;-74
2022/10/26 01:45:31;;;;;;;0.10;0.10;;;14.20;99.90;;;;;;5012765;28;20026;-75
2022/10/26 01:47:59;;;;;;;0.10;0.10;;;14.10;99.90;;;;;;5011636;28;20018;-75
2022/10/26 01:50:26;;;;;;;0.20;0.20;;;14.10;99.90;;;;;;5011180;28;20053;-75
2022/10/26 01:52:53;;;;;;;0.10;0.10;;;14.00;99.90;;;;;;5012532;28;20033;-75
2022/10/26 01:55:38;;;;;;;0.00;0.00;;;13.90;99.90;;;;;;4994678;28;20482;-75
2022/10/26 01:58:24;;;;;;;0.57;0.57;;;13.80;99.90;;;;;;5011175;28;20036;-74
2022/10/26 02:01:22;;;;;;;0.20;0.20;;;13.90;99.90;;;;;;5012461;28;20054;-75
2022/10/26 02:04:06;;;;;;;0.20;0.20;;;13.90;99.90;;;;;;4963556;28;20172;-74
2022/10/26 02:06:56;;;;;;;0.10;0.10;;;14.00;99.90;;;;;;4994565;28;20022;-74
2022/10/26 02:09:33;;;;;;;0.20;0.20;;;14.00;99.90;;;;;;5012518;28;20386;-74
2022/10/26 02:12:05;;;;;;;0.10;0.10;;;13.60;99.90;;;;;;4994718;28;20041;-74
2022/10/26 02:14:59;;;;;;;0.10;0.10;;;13.50;99.90;;;;;;5012246;28;20022;-74
2022/10/26 02:17:33;;;;;;;0.10;0.10;;;13.60;99.90;;;;;;5012291;28;20478;-75
2022/10/26 02:20:09;;;;;;;0.10;0.10;;;13.50;99.90;;;;;;5012273;28;20025;-74
2022/10/26 02:22:40;;;;;;;0.20;0.20;;;13.40;99.90;;;;;;5010860;28;20026;-74
2022/10/26 02:25:15;;;;;;;0.10;0.10;;;13.20;99.90;;;;;;5010803;28;20049;-73
2022/10/26 02:27:48;;;;;;;0.10;0.10;;;13.20;99.90;;;;;;5012208;28;20053;-74
2022/10/26 02:30:13;;;;;;;0.10;0.10;;;13.30;99.90;;;;;;5012075;28;20041;-74
2022/10/26 02:32:46;;;;;;;0.10;0.10;;;13.20;99.90;;;;;;5012082;28;20030;-74
2022/10/26 02:35:14;;;;;;;0.13;0.13;;;13.10;99.90;;;;;;5011695;28;20554;-74
2022/10/26 02:37:43;;;;;;;0.30;0.30;;;13.10;99.90;;;;;;5012121;28;20026;-73
2022/10/26 02:40:13;;;;;;;0.40;0.40;;;13.20;99.90;;;;;;4994746;28;20037;-74
2022/10/26 02:42:42;;;;;;;0.57;0.47;;;13.20;99.90;;;;;;5016001;28;20022;-74
2022/10/26 02:45:12;;;;;;;0.63;0.63;;;13.10;99.90;;;;;;5015627;28;20018;-73
2022/10/26 02:47:38;;;;;;;0.20;0.20;;;13.10;99.90;;;;;;5015920;28;20547;-74
2022/10/26 02:50:04;;;;;;;0.60;0.52;;;13.10;99.90;;;;;;5015707;28;20038;-74
2022/10/26 02:52:30;;;;;;;0.20;0.20;;;13.10;99.90;;;;;;5014614;28;20030;-74
2022/10/26 02:55:03;;;;;;;0.50;0.50;;;13.10;99.90;;;;;;5015680;28;20354;-74
2022/10/26 02:57:38;;;;;;;0.10;0.10;;;13.10;99.90;;;;;;4982081;28;20029;-73
2022/10/26 03:00:08;;;;;;;0.10;0.10;;;13.10;99.90;;;;;;5015690;28;20026;-74
2022/10/26 03:02:34;;;;;;;0.13;0.13;;;13.10;99.90;;;;;;4997914;28;20022;-74
2022/10/26 03:05:16;;;;;;;0.10;0.10;;;13.20;99.90;;;;;;5015386;28;20544;-74
2022/10/26 03:07:42;;;;;;;0.10;0.10;;;13.30;99.90;;;;;;5015587;28;20101;-74
2022/10/26 03:10:08;;;;;;;0.52;0.52;;;13.50;99.90;;;;;;5015499;28;20060;-74
2022/10/26 03:12:34;;;;;;;0.10;0.10;;;13.50;99.90;;;;;;5015970;28;20033;-74
2022/10/26 03:15:00;;;;;;;0.20;0.20;;;13.40;99.90;;;;;;4997470;28;20100;-74
2022/10/26 03:17:25;;;;;;;0.10;0.10;;;13.30;99.90;;;;;;5015420;28;20022;-74
2022/10/26 03:19:51;;;;;;;0.10;0.10;;;13.30;99.90;;;;;;5015419;28;20076;-74
2022/10/26 03:22:17;;;;;;;0.10;0.10;;;13.20;99.90;;;;;;5015292;28;20061;-74
2022/10/26 03:24:43;;;;;;;0.10;0.10;;;13.00;99.90;;;;;;4997608;28;20034;-74
2022/10/26 03:27:09;;;;;;;0.10;0.10;;;13.10;99.90;;;;;;5015151;28;20022;-75
2022/10/26 03:29:34;;;;;;;0.10;0.10;;;13.20;99.90;;;;;;4997366;28;20037;-74
2022/10/26 03:32:00;;;;;;;0.15;0.15;;;13.00;99.90;;;;;;5015237;28;20025;-74
2022/10/26 03:34:26;;;;;;;0.15;0.15;;;12.80;99.90;;;;;;5015152;28;20400;-74
2022/10/26 03:36:51;;;;;;;5.72;0.40;;;12.80;99.90;;;;;;5014804;28;20109;-74
2022/10/26 03:39:17;;;;;;;0.10;0.10;;;12.70;99.90;;;;;;4997456;28;20022;-74
2022/10/26 03:41:43;;;;;;;0.55;0.30;;;12.60;99.90;;;;;;5014796;28;20079;-74
2022/10/26 03:44:09;;;;;;;0.43;0.43;;;12.50;99.90;;;;;;5014713;28;20073;-74
2022/10/26 03:46:34;;;;;;;0.10;0.10;;;12.50;99.90;;;;;;5014701;28;20381;-74
2022/10/26 03:49:00;;;;;;;0.10;0.10;;;12.50;99.90;;;;;;5014496;28;20022;-74
2022/10/26 03:51:26;;;;;;;0.85;0.40;;;12.60;99.90;;;;;;5014723;28;20145;-74
2022/10/26 03:53:52;;;;;;;0.17;0.17;;;12.70;99.90;;;;;;5014680;28;20022;-74
2022/10/26 03:56:18;;;;;;;0.85;0.22;;;12.70;99.90;;;;;;4996833;28;20092;-74
2022/10/26 03:58:44;;;;;;;0.20;0.20;;;12.70;99.90;;;;;;5014703;28;20359;-74
2022/10/26 04:01:09;;;;;;;0.10;0.10;;;12.70;99.90;;;;;;5013467;28;20509;-73
2022/10/26 04:03:35;;;;;;;0.10;0.10;;;12.80;99.90;;;;;;5014479;28;20037;-74
2022/10/26 04:06:02;;;;;;;0.10;0.10;;;12.80;99.90;;;;;;5014297;28;20045;-74
2022/10/26 04:08:28;;;;;;;0.10;0.10;;;12.80;99.90;;;;;;5014546;28;20484;-74
2022/10/26 04:10:53;;;;;;;0.10;0.10;;;12.80;99.90;;;;;;5014355;28;20049;-74
2022/10/26 04:13:19;;;;;;;0.10;0.10;;;12.80;99.90;;;;;;4996669;28;20095;-74
2022/10/26 04:15:45;;;;;;;0.10;0.10;;;12.80;99.90;;;;;;5014137;28;20022;-74
2022/10/26 04:18:11;;;;;;;0.10;0.10;;;12.90;99.90;;;;;;5012811;28;20030;-74
2022/10/26 04:20:40;;;;;;;0.10;0.10;;;12.90;99.90;;;;;;5014230;28;20028;-74
2022/10/26 04:23:09;;;;;;;0.13;0.13;;;12.90;99.90;;;;;;5014017;28;20110;-74
2022/10/26 04:25:35;;;;;;;0.10;0.10;;;12.90;99.90;;;;;;5013911;28;20041;-74
2022/10/26 04:28:03;;;;;;;0.10;0.10;;;12.90;99.90;;;;;;5011319;28;20559;-74
2022/10/26 04:30:30;;;;;;;0.10;0.10;;;13.00;99.90;;;;;;5004986;28;20489;-74
2022/10/26 04:32:56;;;;;;;0.20;0.20;;;13.00;99.90;;;;;;5023336;28;20200;-73
2022/10/26 04:35:22;;;;;;;0.10;0.10;;;13.00;99.90;;;;;;5032031;28;20127;-74
2022/10/26 04:37:48;;;;;;;0.10;0.10;;;13.10;99.90;;;;;;5017878;28;20029;-74
2022/10/26 04:40:15;;;;;;;0.20;0.20;;;13.10;99.90;;;;;;5023055;28;20109;-74
2022/10/26 04:42:44;;;;;;;0.08;0.08;;;13.10;99.90;;;;;;4998969;28;20022;-73
2022/10/26 04:45:11;;;;;;;0.10;0.10;;;13.00;99.90;;;;;;5017603;28;20076;-74
2022/10/26 04:47:36;;;;;;;0.25;0.13;;;13.00;99.90;;;;;;5015638;28;20032;-74
2022/10/26 04:50:03;;;;;;;0.10;0.10;;;13.10;99.90;;;;;;5033317;28;20104;-74
2022/10/26 04:52:29;;;;;;;0.13;0.13;;;13.00;99.90;;;;;;5015526;28;20596;-74
2022/10/26 04:54:55;;;;;;;0.10;0.10;;;13.00;99.90;;;;;;5017728;28;20034;-73
2022/10/26 04:57:21;;;;;;;0.15;0.15;;;13.00;99.90;;;;;;5013446;28;20025;-73
2022/10/26 04:59:47;;;;;;;0.10;0.10;;;13.00;99.90;;;;;;5013418;28;20101;-74
2022/10/26 05:02:12;;;;;;;0.20;0.20;;;13.10;99.90;;;;;;5013358;28;20038;-74
2022/10/26 05:04:38;;;;;;;0.10;0.10;;;13.20;99.90;;;;;;5012611;28;20030;-75
2022/10/26 05:07:04;;;;;;;0.10;0.10;;;13.30;99.90;;;;;;5013468;28;20026;-75
2022/10/26 05:09:30;;;;;;;0.10;0.10;;;13.60;99.90;;;;;;4995562;28;20509;-74
2022/10/26 05:11:55;;;;;;;0.10;0.10;;;13.60;99.90;;;;;;5018322;28;20500;-74
2022/10/26 05:14:21;;;;;;;0.10;0.10;;;13.70;99.90;;;;;;5029023;28;20030;-73
2022/10/26 05:16:49;;;;;;;0.10;0.10;;;13.70;99.90;;;;;;5013361;28;20164;-74
2022/10/26 05:19:14;;;;;;;0.10;0.10;;;13.60;99.90;;;;;;5019832;28;20026;-74
2022/10/26 05:21:40;;;;;;;0.80;0.30;;;13.50;99.90;;;;;;5032690;28;20052;-74
2022/10/26 05:24:06;;;;;;;0.05;0.05;;;13.50;99.90;;;;;;5031562;28;20473;-74
2022/10/26 05:26:32;;;;;;;0.10;0.10;;;13.50;99.90;;;;;;5012368;28;20041;-74
2022/10/26 05:28:58;;;;;;;0.10;0.10;;;13.50;99.90;;;;;;5024524;28;20359;-73
2022/10/26 05:31:23;;;;;;;0.30;0.30;;;13.50;99.90;;;;;;5018114;28;20091;-74
2022/10/26 05:33:50;;;;;;;0.10;0.10;;;13.50;99.90;;;;;;5014765;28;20022;-74
2022/10/26 05:36:17;;;;;;;0.10;0.10;;;13.60;99.90;;;;;;5002260;28;20022;-74
2022/10/26 05:38:43;;;;;;;0.10;0.10;;;13.70;99.90;;;;;;5012754;28;20041;-74
2022/10/26 05:41:09;;;;;;;0.10;0.10;;;13.80;99.90;;;;;;4977584;28;20048;-74
2022/10/26 05:43:35;;;;;;;0.10;0.10;;;13.80;99.90;;;;;;5012608;28;20022;-74
2022/10/26 05:46:01;;;;;;;0.20;0.20;;;13.60;99.90;;;;;;5010926;28;20022;-73
2022/10/26 05:48:26;;;;;;;0.70;0.30;;;13.50;99.90;;;;;;5012777;28;20027;-73
2022/10/26 05:50:52;;;;;;;0.20;0.17;;;13.40;99.90;;;;;;4993729;28;20034;-74
2022/10/26 05:53:18;;;;;;;0.10;0.10;;;13.30;99.90;;;;;;4992077;28;20049;-73
2022/10/26 05:55:44;;;;;;;0.10;0.10;;;13.40;99.90;;;;;;4991623;28;20527;-72
2022/10/26 05:58:12;;;;;;;0.10;0.10;;;13.40;99.90;;;;;;4991125;28;20125;-73
2022/10/26 06:00:54;;;;;;;0.17;0.17;;;13.40;99.90;;;;;;4992530;28;20026;-73
2022/10/26 06:03:35;;;;;;;0.30;0.30;;;13.50;99.90;;;;;;4992106;28;20034;-73
2022/10/26 06:06:01;;;;;;;0.10;0.10;;;13.50;99.90;;;;;;4992157;28;20054;-76
2022/10/26 06:08:28;;;;;;;0.10;0.10;;;13.50;99.90;;;;;;4992179;28;20026;-74
2022/10/26 06:10:56;;;;;;;0.30;0.30;;;13.40;99.90;;;;;;4990845;28;20394;-75
2022/10/26 06:13:22;;;;;;;0.05;0.05;;;13.30;99.90;;;;;;4992051;28;20564;-74
2022/10/26 06:15:51;;;;;;;1.00;0.50;;;13.20;99.90;;;;;;4991130;28;20026;-74
2022/10/26 06:18:25;;;;;;;0.47;0.47;;;13.20;99.90;;;;;;4992210;28;20050;-74
2022/10/26 06:21:05;;;;;;;1.20;0.43;;;13.20;99.90;;;;;;4990851;28;20026;-74
2022/10/26 06:23:52;;;;;;;0.75;0.68;;;13.10;99.90;;;;;;4990780;28;20046;-73
2022/10/26 06:26:31;;;;;;;0.20;0.20;;;13.20;99.90;;;;;;4991354;28;20022;-73
2022/10/26 06:29:34;;;;;;;0.30;0.30;;;13.20;99.90;;;;;;4991966;28;20097;-73
2022/10/26 06:32:00;;;;;;;;;;;13.20;99.90;;;;;;4991068;28;20030;-74
2022/10/26 06:34:35;;;;;;;0.40;0.40;;;13.30;99.90;;;;;;4992181;28;19912;-74
2022/10/26 06:37:02;;;;;;;0.20;0.20;;;13.30;99.90;;;;;;4991949;28;20106;-74
2022/10/26 06:39:34;;;;;;;0.10;0.10;;;13.30;99.90;;;;;;4992031;28;20030;-74
2022/10/26 06:42:00;;;;;;;0.20;0.20;;;13.30;99.90;;;;;;4991978;28;20031;-74
2022/10/26 06:44:26;;;;;;;0.35;0.35;;;13.30;99.90;;;;;;4993099;28;20042;-74
2022/10/26 06:47:25;;;;;;;3.00;2.47;;;13.40;99.90;;;;;;5011099;28;20029;-74
2022/10/26 06:50:16;;;;;;;0.22;0.22;;;13.40;99.90;;;;;;4978898;28;20037;-73
2022/10/26 06:52:52;;;;;;;0.13;0.13;;;13.50;99.90;;;;;;5011176;28;20021;-74
2022/10/26 06:55:18;;;;;;;0.40;0.40;;;13.60;99.90;;;;;;5010132;28;20030;-74
2022/10/26 06:57:44;;;;;;;0.10;0.10;;;13.70;99.90;;;;;;5010579;28;20049;-74
2022/10/26 07:00:22;;;;;;;0.20;0.20;;;13.70;99.90;;;;;;5010777;28;20022;-73
2022/10/26 07:02:48;;;;;;;0.10;0.10;;;13.70;99.90;;;;;;4993831;28;20045;-74
2022/10/26 07:05:14;;;;;;;0.10;0.10;;;13.70;99.90;;;;;;5011266;28;20025;-74
2022/10/26 07:07:46;;;;;;;0.10;0.10;;;13.80;99.90;;;;;;5011253;28;20144;-74
2022/10/26 07:10:13;;;;;;;0.10;0.10;;;13.90;99.90;;;;;;5011430;28;20057;-74
2022/10/26 07:12:39;;;;;;;0.30;0.30;;;13.90;99.90;;;;;;5011374;28;20492;-74
2022/10/26 07:15:05;;;;;;;0.10;0.10;;;13.80;99.90;;;;;;5010799;28;20030;-74
2022/10/26 07:17:40;;;;;;;0.20;0.20;;;13.80;99.90;;;;;;5010214;28;20033;-74
2022/10/26 07:20:06;;;;;;;0.10;0.10;;;13.90;99.90;;;;;;4993898;28;20449;-74
2022/10/26 07:22:32;;;;;;;0.13;0.13;;;13.90;99.90;;;;;;4993478;28;20493;-74
2022/10/26 07:24:58;;;;;;;0.10;0.10;;;14.00;99.90;;;;;;5011040;28;20081;-75
2022/10/26 07:27:24;;;;;;;0.10;0.10;;;14.10;99.90;;;;;;5013401;28;20445;-73
2022/10/26 07:29:49;;;;;;;0.10;0.10;;;14.10;99.90;;;;;;5014938;28;20053;-74
2022/10/26 07:32:15;;;;;;;0.10;0.10;;;14.10;99.90;;;;;;5014749;28;20113;-75
2022/10/26 07:34:41;;;;;;;0.10;0.10;;;14.20;99.90;;;;;;5014682;28;20041;-74
2022/10/26 07:37:06;;;;;;;0.10;0.10;;;14.20;99.90;;;;;;5013248;28;20041;-74
2022/10/26 07:39:32;;;;;;;0.00;0.00;;;14.40;99.90;;;;;;5014579;28;20099;-73
2022/10/26 07:41:58;;;;;;;0.10;0.10;;;14.40;99.90;;;;;;5014702;28;20386;-74
2022/10/26 07:44:24;;;;;;;0.10;0.10;;;14.50;99.90;;;;;;5014634;28;20381;-74
2022/10/26 07:46:50;;;;;;;0.10;0.10;;;14.50;99.90;;;;;;5014442;28;20072;-74
2022/10/26 07:49:17;;;;;;;0.10;0.10;;;14.60;99.90;;;;;;4996791;28;20036;-74
2022/10/26 07:51:43;;;;;;;0.38;0.38;;;14.50;99.90;;;;;;4996645;28;20405;-73
2022/10/26 07:54:09;;;;;;;0.10;0.10;;;14.60;99.90;;;;;;5013153;28;20109;-74
2022/10/26 07:56:34;;;;;;;0.10;0.10;;;14.60;99.90;;;;;;5014200;28;20417;-74
2022/10/26 07:59:00;;;;;;;0.10;0.10;;;14.70;99.90;;;;;;5014151;28;20034;-74
2022/10/26 08:01:26;;;;;;;0.10;0.10;;;14.80;99.90;;;;;;5014284;28;20025;-74
2022/10/26 08:03:53;;;;;;;0.20;0.20;;;14.90;99.90;;;;;;5013167;28;20029;-74
2022/10/26 08:06:22;;;;;;;0.10;0.10;;;14.90;99.90;;;;;;5013469;28;20018;-74
2022/10/26 08:08:48;;;;;;;0.10;0.10;;;14.80;99.90;;;;;;5013997;28;20029;-75
2022/10/26 08:11:15;;;;;;;0.10;0.10;;;14.80;99.90;;;;;;5013956;28;20022;-75
2022/10/26 08:13:41;;;;;;;0.20;0.20;;;14.80;99.90;;;;;;4996558;28;20022;-74
2022/10/26 08:16:07;;;;;;;0.10;0.10;;;14.80;99.90;;;;;;5013887;28;20028;-74
2022/10/26 08:18:33;;;;;;;4.85;2.70;;;14.80;99.90;;;;;;4980088;28;20034;-74
2022/10/26 08:21:09;;;;;;;0.10;0.10;;;14.80;99.90;;;;;;4996167;28;20145;-74
2022/10/26 08:23:34;;;;;;;0.00;0.00;;;14.80;99.90;;;;;;5013817;28;20101;-74
2022/10/26 08:26:01;;;;;;;0.10;0.10;;;14.90;99.90;;;;;;5013622;28;20443;-74
2022/10/26 08:28:28;;;;;;;0.20;0.20;;;15.00;99.90;;;;;;5013741;28;20014;-74
2022/10/26 08:30:54;;;;;;;0.10;0.10;;;15.00;99.90;;;;;;5013468;28;20025;-73
2022/10/26 08:33:20;;;;;;;0.10;0.10;;;15.00;99.90;;;;;;4996091;28;20037;-73
2022/10/26 08:35:46;;;;;;;0.10;0.10;;;15.00;99.90;;;;;;5013170;28;20029;-73
2022/10/26 08:38:12;;;;;;;0.10;0.10;;;15.00;99.90;;;;;;5011897;28;20022;-74
2022/10/26 08:40:40;;;;;;;0.00;0.00;;;15.00;99.90;;;;;;5013433;28;20105;-73
2022/10/26 08:43:21;;;;;;;0.10;0.10;;;15.00;99.90;;;;;;5013199;28;20118;-74
2022/10/26 08:45:54;;;;;;;0.10;0.10;;;15.10;99.90;;;;;;5013029;28;20038;-74
2022/10/26 08:48:26;;;;;;;0.10;0.10;;;15.30;99.90;;;;;;5013198;28;20018;-74
2022/10/26 08:50:51;;;;;;;;;;;15.30;99.90;;;;;;4995985;28;20113;-70
2022/10/26 08:53:17;;;;;;;0.10;0.10;;;15.40;99.90;;;;;;5013091;28;19933;-70
2022/10/26 08:55:47;;;;;;;0.20;0.20;;;15.50;99.90;;;;;;5012771;28;20480;-70
2022/10/26 08:58:21;;;;;;;0.10;0.10;;;15.60;99.90;;;;;;5012842;28;20077;-70
2022/10/26 09:00:48;;;;;;;0.10;0.10;;;15.60;99.90;;;;;;5012918;28;20076;-69
2022/10/26 09:03:16;;;;;;;0.00;0.00;;;15.70;99.90;;;;;;5012820;28;20033;-69
2022/10/26 09:06:11;;;;;;;0.10;0.10;;;15.80;99.90;;;;;;5012438;28;20026;-70
2022/10/26 09:08:54;;;;;;;0.00;0.00;;;15.90;99.90;;;;;;5012770;28;20076;-70
2022/10/26 09:11:39;;;;;;;0.10;0.10;;;16.20;99.90;;;;;;5012621;28;20030;-69
2022/10/26 09:14:27;;;;;;;0.10;0.10;;;16.40;99.90;;;;;;5012735;28;20026;-69
2022/10/26 09:17:01;;;;;;;0.10;0.10;;;16.60;99.90;;;;;;5012449;28;20242;-71
2022/10/26 09:19:49;;;;;;;0.13;0.13;;;16.70;99.90;;;;;;5012527;28;20105;-70
2022/10/26 09:22:51;;;;;;;0.10;0.10;;;16.90;99.90;;;;;;5012444;28;20026;-70
2022/10/26 09:25:22;;;;;;;0.10;0.10;;;17.10;99.90;;;;;;5012109;28;20367;-70
2022/10/26 09:27:56;;;;;;;0.10;0.10;;;17.40;99.90;;;;;;5012668;28;20498;-71
2022/10/26 09:30:22;;;;;;;0.10;0.10;;;17.50;99.90;;;;;;5012470;28;20367;-72
2022/10/26 09:32:49;;;;;;;0.10;0.10;;;17.40;99.90;;;;;;5011363;28;20474;-72
2022/10/26 09:35:22;;;;;;;0.10;0.10;;;17.40;99.90;;;;;;4994323;28;20021;-72
2022/10/26 09:37:55;;;;;;;0.10;0.10;;;17.60;99.90;;;;;;5012557;28;20030;-72
2022/10/26 09:40:38;;;;;;;0.00;0.00;;;17.90;99.90;;;;;;4994800;28;20539;-73
2022/10/26 09:43:17;;;;;;;0.15;0.15;;;18.10;99.90;;;;;;5012153;28;20057;-73
2022/10/26 09:45:53;;;;;;;0.17;0.17;;;17.90;99.90;;;;;;4978304;28;20514;-73
2022/10/26 09:48:36;;;;;;;0.20;0.20;;;18.20;99.90;;;;;;5011060;28;20118;-76
2022/10/26 09:51:02;;;;;;;0.10;0.10;;;18.00;99.90;;;;;;4994053;28;20033;-73
2022/10/26 09:53:27;;;;;;;0.20;0.20;;;17.80;99.90;;;;;;4993753;28;20032;-73
2022/10/26 09:56:14;;;;;;;0.20;0.20;;;17.80;99.90;;;;;;5011493;28;20026;-73
2022/10/26 09:58:58;;;;;;;0.03;0.03;;;17.70;99.90;;;;;;5010715;28;20092;-73
2022/10/26 10:01:34;;;;;;;0.35;0.35;;;17.90;99.90;;;;;;4994152;28;20099;-73
2022/10/26 10:04:12;;;;;;;0.00;0.00;;;17.90;99.90;;;;;;5012289;28;20053;-74
2022/10/26 10:06:42;;;;;;;0.10;0.10;;;18.20;99.90;;;;;;4992279;28;20096;-74
2022/10/26 10:09:15;;;;;;;0.50;0.50;;;18.90;99.90;;;;;;4993493;28;20029;-74
2022/10/26 10:11:55;;;;;;;0.13;0.13;;;19.10;99.90;;;;;;5011919;28;20076;-74
2022/10/26 10:14:26;;;;;;;0.52;0.25;;;19.20;99.90;;;;;;5011955;28;20018;-74
2022/10/26 10:17:01;;;;;;;0.00;0.00;;;19.00;99.90;;;;;;4977386;28;20061;-74
2022/10/26 10:19:32;;;;;;;0.05;0.05;;;19.00;99.90;;;;;;4993914;28;20026;-74
2022/10/26 10:22:00;;;;;;;0.00;0.00;;;19.50;99.90;;;;;;4993807;28;20026;-74
2022/10/26 10:24:32;;;;;;;0.05;0.05;;;19.30;99.90;;;;;;5012105;28;20037;-73
2022/10/26 10:27:18;;;;;;;0.00;0.00;;;18.90;99.90;;;;;;5011540;28;20102;-74
2022/10/26 10:29:45;;;;;;;0.10;0.10;;;18.70;99.90;;;;;;5011589;28;20026;-74
2022/10/26 10:32:16;;;;;;;0.45;0.45;;;18.60;99.90;;;;;;5011729;28;20076;-74
2022/10/26 10:34:44;;;;;;;0.10;0.10;;;18.70;99.90;;;;;;4993840;28;20033;-74
2022/10/26 10:37:35;;;;;;;0.17;0.17;;;19.90;99.90;;;;;;4993624;28;20518;-74
2022/10/26 10:40:04;;;;;;;2.50;0.57;;;20.80;99.90;;;;;;4993955;28;20064;-74
2022/10/26 10:42:33;;;;;;;0.10;0.10;;;20.70;99.30;;;;;;4993704;28;20037;-74
2022/10/26 10:45:01;;;;;;;0.00;0.00;;;21.00;99.90;;;;;;5011258;28;20439;-74
2022/10/26 10:47:32;;;;;;;0.08;0.08;;;21.90;98.40;;;;;;5011310;28;20025;-73
2022/10/26 10:50:01;;;;;;;2.17;0.20;;;23.00;94.10;;;;;;5011278;28;20030;-74
2022/10/26 10:52:35;;;;;;;1.98;1.25;;;22.70;92.60;;;;;;5011305;28;20026;-74
2022/10/26 10:55:13;;;;;;;1.65;0.30;;;21.90;92.20;;;;;;4977407;28;20528;-74
2022/10/26 10:58:12;;;;;;;0.10;0.10;;;21.90;93.00;;;;;;5011123;28;20022;-75
2022/10/26 11:00:42;;;;;;;0.08;0.08;;;22.60;91.90;;;;;;4993741;28;20026;-74
2022/10/26 11:03:55;;;;;;;0.20;0.20;;;22.80;90.60;;;;;;4997128;28;20093;-73
2022/10/26 11:06:27;;;;;;;0.15;0.15;;;23.20;89.30;;;;;;5014669;28;20384;-74
2022/10/26 11:09:10;;;;;;;0.08;0.08;;;21.80;90.50;;;;;;5015144;28;20080;-74
2022/10/26 11:11:41;;;;;;;0.10;0.10;;;21.20;92.90;;;;;;4997226;28;20025;-74
2022/10/26 11:14:33;;;;;;;0.00;0.00;;;20.30;94.00;;;;;;5014961;28;20018;-74
2022/10/26 11:17:21;;;;;;;0.10;0.10;;;20.00;95.60;;;;;;5014712;28;20037;-74
2022/10/26 11:19:58;;;;;;;0.00;0.00;;;19.50;99.90;;;;;;4997080;28;20389;-74
2022/10/26 11:22:58;;;;;;;0.10;0.10;;;19.30;99.90;;;;;;4997138;28;20030;-74
2022/10/26 11:25:29;;;;;;;0.10;0.10;;;19.30;99.90;;;;;;5014325;28;20113;-74
2022/10/26 11:28:13;;;;;;;0.20;0.20;;;19.10;99.90;;;;;;5014754;28;20049;-74
2022/10/26 11:30:45;;;;;;;0.00;0.00;;;19.00;99.90;;;;;;5014770;28;20022;-75
2022/10/26 11:33:39;;;;;;;0.05;0.05;;;19.00;99.90;;;;;;4996990;28;20033;-74
2022/10/26 11:36:16;;;;;;;0.05;0.05;;;18.80;99.90;;;;;;5014195;28;20039;-74
2022/10/26 11:38:48;;;;;;;0.10;0.10;;;18.70;99.90;;;;;;5014593;28;20106;-74
2022/10/26 11:41:23;;;;;;;0.10;0.10;;;18.60;99.90;;;;;;5013560;28;20018;-74
2022/10/26 11:43:56;;;;;;;0.10;0.10;;;18.70;99.90;;;;;;4996585;28;20030;-74
2022/10/26 11:46:33;;;;;;;0.00;0.00;;;18.80;99.90;;;;;;5014061;28;20018;-74
2022/10/26 11:49:21;;;;;;;0.00;0.00;;;18.70;99.90;;;;;;4996271;28;20022;-74
2022/10/26 11:52:17;;;;;;;5.57;2.35;;;18.70;99.90;;;;;;4996371;28;20085;-74
2022/10/26 11:54:53;;;;;;;0.38;0.38;;;18.90;99.90;;;;;;4996404;28;20041;-74
2022/10/26 11:57:21;;;;;;;0.10;0.10;;;18.70;99.90;;;;;;4980069;28;20061;-74
2022/10/26 11:59:59;;;;;;;0.10;0.10;;;18.50;99.90;;;;;;5014188;28;20025;-76
2022/10/26 12:02:25;;;;;;;0.20;0.20;;;18.60;99.90;;;;;;4996196;28;20029;-73
2022/10/26 12:05:06;;;;;;;1.48;1.38;;;18.70;99.90;;;;;;4996068;28;20025;-73
2022/10/26 12:07:37;;;;;;;0.28;0.28;;;18.70;99.90;;;;;;5014110;28;20541;-73
2022/10/26 12:10:07;;;;;;;0.17;0.15;;;18.60;99.90;;;;;;5012533;28;20370;-73
2022/10/26 12:12:36;;;;;;;0.20;0.20;;;18.50;99.90;;;;;;5011962;28;20094;-73
2022/10/26 12:15:14;;;;;;;0.08;0.08;;;18.60;99.90;;;;;;4995498;28;20370;-73
2022/10/26 12:18:02;;;;;;;0.98;0.32;;;18.60;99.90;;;;;;4995952;28;20022;-72
2022/10/26 12:20:34;;;;;;;0.20;0.20;;;18.50;99.90;;;;;;4996145;28;20387;-73
2022/10/26 12:23:02;;;;;;;;;;;18.60;99.90;;;;;;4996254;28;20026;-73
2022/10/26 12:25:27;;;;;;;0.10;0.10;;;18.70;99.90;;;;;;5013437;28;20277;-73
2022/10/26 12:27:55;;;;;;;0.25;0.25;;;18.70;99.90;;;;;;5013441;28;20032;-73
2022/10/26 12:30:21;;;;;;;0.10;0.10;;;18.70;99.90;;;;;;5012161;28;20041;-73
2022/10/26 12:32:47;;;;;;;0.10;0.10;;;18.70;99.90;;;;;;5013216;28;20034;-73
2022/10/26 12:35:33;;;;;;;0.40;0.20;;;18.80;99.90;;;;;;4995545;28;20096;-73
2022/10/26 12:38:20;;;;;;;0.10;0.10;;;18.70;99.90;;;;;;5013412;28;20393;-73
2022/10/26 12:40:46;;;;;;;1.00;1.00;;;18.50;99.90;;;;;;5013199;28;20026;-73
2022/10/26 12:43:15;;;;;;;0.10;0.10;;;18.30;99.90;;;;;;5013126;28;20026;-73
2022/10/26 12:45:42;;;;;;;0.10;0.10;;;18.20;99.90;;;;;;5013152;28;20025;-73
2022/10/26 12:48:45;;;;;;;0.10;0.10;;;18.20;99.90;;;;;;5012090;28;20022;-73
2022/10/26 12:51:37;;;;;;;0.03;0.03;;;18.20;99.90;;;;;;4988019;28;20046;-72
2022/10/26 12:54:03;;;;;;;0.00;0.00;;;18.20;99.90;;;;;;5009672;28;20069;-74
2022/10/26 12:56:50;;;;;;;5.20;1.48;;;18.20;99.90;;;;;;5012959;28;20493;-74
2022/10/26 12:59:42;;;;;;;0.10;0.10;;;18.30;99.90;;;;;;4995500;28;20434;-74
2022/10/26 13:02:35;;;;;;;0.00;0.00;;;18.30;99.90;;;;;;5012957;28;20030;-72
2022/10/26 13:05:51;;;;;;;0.10;0.10;;;18.40;99.90;;;;;;5012725;28;20516;-73
2022/10/26 13:08:17;;;;;;;0.30;0.30;;;18.30;99.90;;;;;;4962662;28;20486;-72
2022/10/26 13:11:27;;;;;;;0.10;0.10;;;18.30;99.90;;;;;;4995098;28;20021;-72
2022/10/26 13:14:00;;;;;;;0.10;0.10;;;18.30;99.90;;;;;;4993258;28;20034;-76